sensor_id;sensor_type;location;lat;lon;timestamp;pressure;altitude;pressure_sealevel;temperature;humidity
10510;BME280;5303;53.266;10.410;2022-10-29T00:01:10;101704.16;;;17.77;100.00
10510;BME280;5303;53.266;10.410;2022-10-29T00:03:35;101704.03;;;17.63;100.00
10510;BME280;5303;53.266;10.410;2022-10-29T00:06:08;101712.06;;;17.65;100.00
10510;BME280;5303;53.266;10.410;2022-10-29T00:08:35;101719.56;;;17.71;100.00
10510;BME280;5303;53.266;10.410;2022-10-29T00:11:16;101723.47;;;17.77;100.00
10510;BME280;5303;53.266;10.410;2022-10-29T00:13:43;101729.13;;;17.75;100.00
10510;BME280;5303;53.266;10.410;2022-10-29T00:18:35;101722.06;;;17.66;100.00
10510;BME280;5303;53.266;10.410;2022-10-29T00:21:06;101728.66;;;17.72;100.00
10510;BME280;5303;53.266;10.410;2022-10-29T00:23:33;101724.44;;;17.48;100.00
10510;BME280;5303;53.266;10.410;2022-10-29T00:25:59;101732.63;;;17.41;100.00
10510;BME280;5303;53.266;10.410;2022-10-29T00:28:25;101734.66;;;17.32;100.00
10510;BME280;5303;53.266;10.410;2022-10-29T00:30:51;101736.56;;;17.32;100.00
10510;BME280;5303;53.266;10.410;2022-10-29T00:33:16;101748.16;;;17.27;100.00
10510;BME280;5303;53.266;10.410;2022-10-29T00:35:53;101745.41;;;17.27;100.00
10510;BME280;5303;53.266;10.410;2022-10-29T00:38:18;101746.25;;;17.28;100.00
10510;BME280;5303;53.266;10.410;2022-10-29T00:40:43;101755.00;;;17.16;100.00
10510;BME280;5303;53.266;10.410;2022-10-29T00:43:16;101758.91;;;17.07;100.00
10510;BME280;5303;53.266;10.410;2022-10-29T00:45:52;101752.94;;;17.04;100.00
10510;BME280;5303;53.266;10.410;2022-10-29T00:48:19;101758.41;;;16.82;100.00
10510;BME280;5303;53.266;10.410;2022-10-29T00:50:46;101767.91;;;16.80;100.00
10510;BME280;5303;53.266;10.410;2022-10-29T00:53:14;101766.75;;;16.89;100.00
10510;BME280;5303;53.266;10.410;2022-10-29T00:55:40;101764.09;;;16.81;100.00
10510;BME280;5303;53.266;10.410;2022-10-29T00:58:06;101773.41;;;16.80;100.00
10510;BME280;5303;53.266;10.410;2022-10-29T01:00:31;101779.63;;;16.73;100.00
10510;BME280;5303;53.266;10.410;2022-10-29T01:02:56;101782.00;;;16.62;100.00
10510;BME280;5303;53.266;10.410;2022-10-29T01:05:23;101780.84;;;16.56;100.00
10510;BME280;5303;53.266;10.410;2022-10-29T01:07:49;101787.41;;;16.55;100.00
10510;BME280;5303;53.266;10.410;2022-10-29T01:10:15;101795.34;;;16.50;100.00
10510;BME280;5303;53.266;10.410;2022-10-29T01:12:59;101784.19;;;16.51;100.00
10510;BME280;5303;53.266;10.410;2022-10-29T01:15:47;101792.34;;;16.45;100.00
10510;BME280;5303;53.266;10.410;2022-10-29T01:18:35;101796.03;;;16.37;100.00
10510;BME280;5303;53.266;10.410;2022-10-29T01:30:03;101794.00;;;16.16;100.00
10510;BME280;5303;53.266;10.410;2022-10-29T01:35:09;101798.72;;;16.07;100.00
10510;BME280;5303;53.266;10.410;2022-10-29T01:40:34;101803.81;;;15.96;100.00
10510;BME280;5303;53.266;10.410;2022-10-29T01:43:14;101796.59;;;15.95;100.00
10510;BME280;5303;53.266;10.410;2022-10-29T01:45:47;101793.84;;;15.95;100.00
10510;BME280;5303;53.266;10.410;2022-10-29T01:48:19;101803.50;;;15.91;100.00
10510;BME280;5303;53.266;10.410;2022-10-29T01:50:50;101797.31;;;15.89;100.00
10510;BME280;5303;53.266;10.410;2022-10-29T01:53:18;101801.97;;;15.88;100.00
10510;BME280;5303;53.266;10.410;2022-10-29T01:55:43;101803.94;;;15.79;100.00
10510;BME280;5303;53.266;10.410;2022-10-29T01:58:09;101808.03;;;15.83;100.00
10510;BME280;5303;53.266;10.410;2022-10-29T02:00:47;101809.44;;;15.79;100.00
10510;BME280;5303;53.266;10.410;2022-10-29T02:03:55;101818.78;;;15.70;100.00
10510;BME280;5303;53.266;10.410;2022-10-29T02:12:18;101816.72;;;15.64;100.00
10510;BME280;5303;53.266;10.410;2022-10-29T02:15:02;101816.50;;;15.74;100.00
10510;BME280;5303;53.266;10.410;2022-10-29T02:17:30;101824.06;;;15.72;100.00
10510;BME280;5303;53.266;10.410;2022-10-29T02:19:56;101822.88;;;15.66;100.00
10510;BME280;5303;53.266;10.410;2022-10-29T02:22:21;101830.06;;;15.75;100.00
10510;BME280;5303;53.266;10.410;2022-10-29T02:24:47;101835.41;;;15.69;100.00
10510;BME280;5303;53.266;10.410;2022-10-29T02:27:12;101834.69;;;15.75;100.00
10510;BME280;5303;53.266;10.410;2022-10-29T02:29:37;101832.34;;;15.64;100.00
10510;BME280;5303;53.266;10.410;2022-10-29T02:32:03;101826.81;;;15.72;100.00
10510;BME280;5303;53.266;10.410;2022-10-29T02:34:28;101826.66;;;15.65;100.00
10510;BME280;5303;53.266;10.410;2022-10-29T02:36:53;101829.09;;;15.68;100.00
10510;BME280;5303;53.266;10.410;2022-10-29T02:39:19;101825.63;;;15.66;100.00
10510;BME280;5303;53.266;10.410;2022-10-29T02:41:44;101824.28;;;15.62;100.00
10510;BME280;5303;53.266;10.410;2022-10-29T02:44:09;101827.03;;;15.62;100.00
10510;BME280;5303;53.266;10.410;2022-10-29T02:46:34;101825.81;;;15.65;100.00
10510;BME280;5303;53.266;10.410;2022-10-29T02:49:03;101810.91;;;15.67;100.00
10510;BME280;5303;53.266;10.410;2022-10-29T02:51:29;101797.44;;;15.72;100.00
10510;BME280;5303;53.266;10.410;2022-10-29T02:53:54;101797.81;;;15.69;100.00
10510;BME280;5303;53.266;10.410;2022-10-29T02:56:19;101791.22;;;15.78;100.00
10510;BME280;5303;53.266;10.410;2022-10-29T02:58:45;101791.22;;;15.78;100.00
10510;BME280;5303;53.266;10.410;2022-10-29T03:01:10;101788.19;;;15.73;100.00
10510;BME280;5303;53.266;10.410;2022-10-29T03:03:35;101783.78;;;15.64;100.00
10510;BME280;5303;53.266;10.410;2022-10-29T03:06:01;101791.53;;;15.60;100.00
10510;BME280;5303;53.266;10.410;2022-10-29T03:08:26;101806.63;;;15.56;100.00
10510;BME280;5303;53.266;10.410;2022-10-29T03:10:53;101807.56;;;15.49;100.00
10510;BME280;5303;53.266;10.410;2022-10-29T03:13:18;101793.47;;;15.52;100.00
10510;BME280;5303;53.266;10.410;2022-10-29T03:15:44;101791.69;;;15.59;100.00
10510;BME280;5303;53.266;10.410;2022-10-29T03:18:10;101794.50;;;15.51;100.00
10510;BME280;5303;53.266;10.410;2022-10-29T03:20:35;101807.19;;;15.52;100.00
10510;BME280;5303;53.266;10.410;2022-10-29T03:23:01;101804.81;;;15.49;100.00
10510;BME280;5303;53.266;10.410;2022-10-29T03:25:26;101809.13;;;15.43;100.00
10510;BME280;5303;53.266;10.410;2022-10-29T03:27:51;101810.75;;;15.29;100.00
10510;BME280;5303;53.266;10.410;2022-10-29T03:30:16;101811.59;;;15.30;100.00
10510;BME280;5303;53.266;10.410;2022-10-29T03:32:43;101801.69;;;15.29;100.00
10510;BME280;5303;53.266;10.410;2022-10-29T03:35:09;101796.72;;;15.24;100.00
10510;BME280;5303;53.266;10.410;2022-10-29T03:37:35;101800.50;;;15.23;100.00
10510;BME280;5303;53.266;10.410;2022-10-29T03:40:00;101799.44;;;15.24;100.00
10510;BME280;5303;53.266;10.410;2022-10-29T03:42:26;101801.69;;;15.21;100.00
10510;BME280;5303;53.266;10.410;2022-10-29T03:44:51;101801.69;;;15.21;100.00
10510;BME280;5303;53.266;10.410;2022-10-29T03:47:16;101802.56;;;15.21;100.00
10510;BME280;5303;53.266;10.410;2022-10-29T03:49:42;101801.69;;;15.21;100.00
10510;BME280;5303;53.266;10.410;2022-10-29T03:52:07;101803.72;;;15.27;100.00
10510;BME280;5303;53.266;10.410;2022-10-29T03:54:32;101802.88;;;15.26;100.00
10510;BME280;5303;53.266;10.410;2022-10-29T03:56:57;101804.94;;;15.24;100.00
10510;BME280;5303;53.266;10.410;2022-10-29T03:59:23;101807.88;;;15.23;100.00
10510;BME280;5303;53.266;10.410;2022-10-29T04:01:48;101806.19;;;15.22;100.00
10510;BME280;5303;53.266;10.410;2022-10-29T04:04:13;101799.16;;;15.19;100.00
10510;BME280;5303;53.266;10.410;2022-10-29T04:06:39;101801.22;;;15.17;100.00
10510;BME280;5303;53.266;10.410;2022-10-29T04:09:04;101799.50;;;15.16;100.00
10510;BME280;5303;53.266;10.410;2022-10-29T04:11:29;101782.91;;;15.09;100.00
10510;BME280;5303;53.266;10.410;2022-10-29T04:13:55;101787.38;;;15.02;100.00
10510;BME280;5303;53.266;10.410;2022-10-29T04:16:20;101799.91;;;15.05;100.00
10510;BME280;5303;53.266;10.410;2022-10-29T04:18:46;101808.84;;;14.99;100.00
10510;BME280;5303;53.266;10.410;2022-10-29T04:21:11;101804.22;;;14.99;100.00
10510;BME280;5303;53.266;10.410;2022-10-29T04:23:37;101798.34;;;15.02;100.00
10510;BME280;5303;53.266;10.410;2022-10-29T04:26:02;101801.84;;;14.96;100.00
10510;BME280;5303;53.266;10.410;2022-10-29T04:28:27;101793.81;;;14.86;100.00
10510;BME280;5303;53.266;10.410;2022-10-29T04:30:53;101805.66;;;14.79;100.00
10510;BME280;5303;53.266;10.410;2022-10-29T04:33:19;101817.81;;;14.84;100.00
10510;BME280;5303;53.266;10.410;2022-10-29T04:35:50;101815.09;;;14.76;100.00
10510;BME280;5303;53.266;10.410;2022-10-29T04:38:16;101812.03;;;14.71;100.00
10510;BME280;5303;53.266;10.410;2022-10-29T04:40:41;101812.03;;;14.71;100.00
10510;BME280;5303;53.266;10.410;2022-10-29T04:43:06;101817.22;;;14.58;100.00
10510;BME280;5303;53.266;10.410;2022-10-29T04:45:31;101824.06;;;14.54;100.00
10510;BME280;5303;53.266;10.410;2022-10-29T04:48:01;101827.84;;;14.53;100.00
10510;BME280;5303;53.266;10.410;2022-10-29T04:50:28;101825.81;;;14.55;100.00
10510;BME280;5303;53.266;10.410;2022-10-29T04:52:57;101818.75;;;14.60;100.00
10510;BME280;5303;53.266;10.410;2022-10-29T04:55:23;101816.34;;;14.57;100.00
10510;BME280;5303;53.266;10.410;2022-10-29T04:57:49;101824.41;;;14.51;100.00
10510;BME280;5303;53.266;10.410;2022-10-29T05:00:14;101827.00;;;14.52;100.00
10510;BME280;5303;53.266;10.410;2022-10-29T05:02:40;101832.78;;;14.41;100.00
10510;BME280;5303;53.266;10.410;2022-10-29T05:05:05;101825.97;;;14.37;100.00
10510;BME280;5303;53.266;10.410;2022-10-29T05:07:31;101816.53;;;14.39;100.00
10510;BME280;5303;53.266;10.410;2022-10-29T05:09:56;101816.69;;;14.46;100.00
10510;BME280;5303;53.266;10.410;2022-10-29T05:12:21;101814.16;;;14.53;100.00
10510;BME280;5303;53.266;10.410;2022-10-29T05:14:46;101815.84;;;14.62;100.00
10510;BME280;5303;53.266;10.410;2022-10-29T05:17:12;101818.72;;;14.68;100.00
10510;BME280;5303;53.266;10.410;2022-10-29T05:19:37;101811.34;;;14.77;100.00
10510;BME280;5303;53.266;10.410;2022-10-29T05:22:02;101814.38;;;14.82;100.00
10510;BME280;5303;53.266;10.410;2022-10-29T05:24:28;101817.47;;;14.87;100.00
10510;BME280;5303;53.266;10.410;2022-10-29T05:26:53;101819.16;;;14.97;100.00
10510;BME280;5303;53.266;10.410;2022-10-29T05:29:18;101822.03;;;15.03;100.00
10510;BME280;5303;53.266;10.410;2022-10-29T05:31:44;101808.81;;;15.07;100.00
10510;BME280;5303;53.266;10.410;2022-10-29T05:34:09;101811.50;;;15.15;100.00
10510;BME280;5303;53.266;10.410;2022-10-29T05:36:34;101816.13;;;15.23;100.00
10510;BME280;5303;53.266;10.410;2022-10-29T05:38:59;101818.31;;;15.27;100.00
10510;BME280;5303;53.266;10.410;2022-10-29T05:41:25;101819.16;;;15.28;100.00
10510;BME280;5303;53.266;10.410;2022-10-29T05:43:50;101817.94;;;15.30;100.00
10510;BME280;5303;53.266;10.410;2022-10-29T05:46:15;101816.94;;;15.31;100.00
10510;BME280;5303;53.266;10.410;2022-10-29T05:48:41;101827.72;;;15.33;100.00
10510;BME280;5303;53.266;10.410;2022-10-29T05:51:07;101837.53;;;15.27;100.00
10510;BME280;5303;53.266;10.410;2022-10-29T05:53:32;101830.00;;;15.21;100.00
10510;BME280;5303;53.266;10.410;2022-10-29T05:55:58;101824.38;;;15.14;100.00
10510;BME280;5303;53.266;10.410;2022-10-29T05:58:23;101830.56;;;15.08;100.00
10510;BME280;5303;53.266;10.410;2022-10-29T06:00:48;101836.63;;;14.96;100.00
10510;BME280;5303;53.266;10.410;2022-10-29T06:03:19;101833.88;;;15.04;100.00
10510;BME280;5303;53.266;10.410;2022-10-29T06:05:46;101837.97;;;15.08;100.00
10510;BME280;5303;53.266;10.410;2022-10-29T06:08:12;101827.47;;;15.11;100.00
10510;BME280;5303;53.266;10.410;2022-10-29T06:10:37;101838.66;;;15.02;100.00
10510;BME280;5303;53.266;10.410;2022-10-29T06:13:11;101835.91;;;15.02;100.00
10510;BME280;5303;53.266;10.410;2022-10-29T06:15:37;101845.88;;;15.03;100.00
10510;BME280;5303;53.266;10.410;2022-10-29T06:18:02;101852.19;;;15.11;100.00
10510;BME280;5303;53.266;10.410;2022-10-29T06:20:28;101856.28;;;15.16;100.00
10510;BME280;5303;53.266;10.410;2022-10-29T06:22:57;101860.19;;;15.21;100.00
10510;BME280;5303;53.266;10.410;2022-10-29T06:25:23;101863.97;;;15.28;100.00
10510;BME280;5303;53.266;10.410;2022-10-29T06:28:06;101868.75;;;15.34;100.00
10510;BME280;5303;53.266;10.410;2022-10-29T06:30:33;101865.16;;;15.26;100.00
10510;BME280;5303;53.266;10.410;2022-10-29T06:32:59;101864.97;;;15.27;100.00
10510;BME280;5303;53.266;10.410;2022-10-29T06:35:25;101857.44;;;15.29;100.00
10510;BME280;5303;53.266;10.410;2022-10-29T06:37:50;101864.25;;;15.33;100.00
10510;BME280;5303;53.266;10.410;2022-10-29T06:40:15;101875.44;;;15.32;100.00
10510;BME280;5303;53.266;10.410;2022-10-29T06:42:42;101862.72;;;15.31;100.00
10510;BME280;5303;53.266;10.410;2022-10-29T06:45:08;101869.25;;;15.30;100.00
10510;BME280;5303;53.266;10.410;2022-10-29T06:47:40;101878.06;;;15.17;100.00
10510;BME280;5303;53.266;10.410;2022-10-29T06:50:06;101875.31;;;15.17;100.00
10510;BME280;5303;53.266;10.410;2022-10-29T06:52:33;101870.16;;;15.22;100.00
10510;BME280;5303;53.266;10.410;2022-10-29T06:54:58;101873.56;;;15.24;100.00
10510;BME280;5303;53.266;10.410;2022-10-29T06:57:27;101865.88;;;15.20;100.00
10510;BME280;5303;53.266;10.410;2022-10-29T06:59:52;101866.38;;;15.15;100.00
10510;BME280;5303;53.266;10.410;2022-10-29T07:02:18;101871.84;;;15.23;100.00
10510;BME280;5303;53.266;10.410;2022-10-29T07:04:44;101877.00;;;15.26;100.00
10510;BME280;5303;53.266;10.410;2022-10-29T07:07:10;101868.75;;;15.34;100.00
10510;BME280;5303;53.266;10.410;2022-10-29T07:09:35;101866.47;;;15.38;100.00
10510;BME280;5303;53.266;10.410;2022-10-29T07:12:00;101870.47;;;15.27;100.00
10510;BME280;5303;53.266;10.410;2022-10-29T07:14:26;101870.16;;;15.22;100.00
10510;BME280;5303;53.266;10.410;2022-10-29T07:16:52;101868.75;;;15.26;100.00
10510;BME280;5303;53.266;10.410;2022-10-29T07:19:17;101876.28;;;15.32;100.00
10510;BME280;5303;53.266;10.410;2022-10-29T07:21:42;101882.47;;;15.34;100.00
10510;BME280;5303;53.266;10.410;2022-10-29T07:24:08;101873.25;;;15.50;100.00
10510;BME280;5303;53.266;10.410;2022-10-29T07:26:34;101878.94;;;15.49;100.00
10510;BME280;5303;53.266;10.410;2022-10-29T07:29:00;101880.50;;;15.43;100.00
10510;BME280;5303;53.266;10.410;2022-10-29T07:31:25;101880.34;;;15.45;100.00
10510;BME280;5303;53.266;10.410;2022-10-29T07:33:50;101891.47;;;15.51;100.00
10510;BME280;5303;53.266;10.410;2022-10-29T07:36:16;101894.38;;;15.50;100.00
10510;BME280;5303;53.266;10.410;2022-10-29T07:38:41;101894.38;;;15.50;100.00
10510;BME280;5303;53.266;10.410;2022-10-29T07:41:06;101899.34;;;15.54;100.00
10510;BME280;5303;53.266;10.410;2022-10-29T07:43:31;101903.16;;;15.45;100.00
10510;BME280;5303;53.266;10.410;2022-10-29T07:45:57;101900.59;;;15.44;100.00
10510;BME280;5303;53.266;10.410;2022-10-29T07:48:22;101902.31;;;15.45;100.00
10510;BME280;5303;53.266;10.410;2022-10-29T07:50:48;101900.72;;;15.50;100.00
10510;BME280;5303;53.266;10.410;2022-10-29T07:53:13;101912.03;;;15.55;100.00
10510;BME280;5303;53.266;10.410;2022-10-29T07:55:39;101912.72;;;15.57;100.00
10510;BME280;5303;53.266;10.410;2022-10-29T07:58:08;101902.38;;;15.59;100.00
10510;BME280;5303;53.266;10.410;2022-10-29T08:00:36;101914.75;;;15.64;100.00
10510;BME280;5303;53.266;10.410;2022-10-29T08:03:02;101913.19;;;15.69;100.00
10510;BME280;5303;53.266;10.410;2022-10-29T08:05:28;101922.31;;;15.61;100.00
10510;BME280;5303;53.266;10.410;2022-10-29T08:07:54;101917.19;;;15.67;100.00
10510;BME280;5303;53.266;10.410;2022-10-29T08:10:21;101907.34;;;15.72;100.00
10510;BME280;5303;53.266;10.410;2022-10-29T08:12:54;101912.47;;;15.75;100.00
10510;BME280;5303;53.266;10.410;2022-10-29T08:15:21;101920.19;;;15.80;100.00
10510;BME280;5303;53.266;10.410;2022-10-29T08:17:46;101915.91;;;15.77;100.00
10510;BME280;5303;53.266;10.410;2022-10-29T08:20:13;101913.88;;;15.71;100.00
10510;BME280;5303;53.266;10.410;2022-10-29T08:22:38;101919.34;;;15.79;100.00
10510;BME280;5303;53.266;10.410;2022-10-29T08:25:04;101911.50;;;15.91;100.00
10510;BME280;5303;53.266;10.410;2022-10-29T08:27:30;101903.38;;;15.98;100.00
10510;BME280;5303;53.266;10.410;2022-10-29T08:29:55;101898.22;;;16.03;100.00
10510;BME280;5303;53.266;10.410;2022-10-29T08:32:20;101894.19;;;16.14;100.00
10510;BME280;5303;53.266;10.410;2022-10-29T08:34:46;101895.13;;;16.21;100.00
10510;BME280;5303;53.266;10.410;2022-10-29T08:37:11;101898.78;;;16.21;100.00
10510;BME280;5303;53.266;10.410;2022-10-29T08:39:36;101886.16;;;16.27;100.00
10510;BME280;5303;53.266;10.410;2022-10-29T08:47:15;101876.91;;;16.43;100.00
10510;BME280;5303;53.266;10.410;2022-10-29T08:50:19;101873.41;;;16.49;100.00
10510;BME280;5303;53.266;10.410;2022-10-29T08:52:48;101859.28;;;16.52;100.00
10510;BME280;5303;53.266;10.410;2022-10-29T08:55:32;101864.69;;;16.45;100.00
10510;BME280;5303;53.266;10.410;2022-10-29T08:58:09;101863.28;;;16.49;100.00
10510;BME280;5303;53.266;10.410;2022-10-29T09:00:38;101861.97;;;16.60;100.00
10510;BME280;5303;53.266;10.410;2022-10-29T09:03:09;101854.09;;;16.72;100.00
10510;BME280;5303;53.266;10.410;2022-10-29T09:05:57;101863.59;;;16.69;100.00
10510;BME280;5303;53.266;10.410;2022-10-29T09:08:33;101869.72;;;16.80;100.00
10510;BME280;5303;53.266;10.410;2022-10-29T09:16:51;101855.28;;;16.92;100.00
10510;BME280;5303;53.266;10.410;2022-10-29T09:19:36;101853.19;;;16.94;100.00
10510;BME280;5303;53.266;10.410;2022-10-29T09:22:21;101854.41;;;17.07;100.00
10510;BME280;5303;53.266;10.410;2022-10-29T09:24:59;101849.69;;;17.15;100.00
10510;BME280;5303;53.266;10.410;2022-10-29T09:27:53;101845.78;;;17.25;100.00
10510;BME280;5303;53.266;10.410;2022-10-29T09:30:21;101845.09;;;17.22;100.00
10510;BME280;5303;53.266;10.410;2022-10-29T09:33:00;101845.19;;;17.29;100.00
10510;BME280;5303;53.266;10.410;2022-10-29T09:35:37;101847.94;;;17.29;100.00
10510;BME280;5303;53.266;10.410;2022-10-29T09:38:23;101848.78;;;17.30;100.00
10510;BME280;5303;53.266;10.410;2022-10-29T09:40:49;101845.19;;;17.29;100.00
10510;BME280;5303;53.266;10.410;2022-10-29T09:48:39;101847.84;;;17.37;100.00
10510;BME280;5303;53.266;10.410;2022-10-29T09:53:38;101843.66;;;17.41;100.00
10510;BME280;5303;53.266;10.410;2022-10-29T09:56:07;101849.22;;;17.48;100.00
10510;BME280;5303;53.266;10.410;2022-10-29T09:58:36;101848.94;;;17.43;100.00
10510;BME280;5303;53.266;10.410;2022-10-29T10:01:02;101843.66;;;17.41;100.00
10510;BME280;5303;53.266;10.410;2022-10-29T10:03:37;101841.75;;;17.42;100.00
10510;BME280;5303;53.266;10.410;2022-10-29T10:06:09;101837.81;;;17.51;100.00
10510;BME280;5303;53.266;10.410;2022-10-29T10:09:04;101827.56;;;17.60;100.00
10510;BME280;5303;53.266;10.410;2022-10-29T10:11:38;101818.50;;;17.66;100.00
10510;BME280;5303;53.266;10.410;2022-10-29T10:14:18;101820.38;;;17.65;100.00
10510;BME280;5303;53.266;10.410;2022-10-29T10:16:45;101822.09;;;17.66;100.00
10510;BME280;5303;53.266;10.410;2022-10-29T10:19:26;101812.31;;;17.79;100.00
10510;BME280;5303;53.266;10.410;2022-10-29T10:21:58;101801.41;;;17.92;100.00
10510;BME280;5303;53.266;10.410;2022-10-29T10:24:34;101807.84;;;17.99;100.00
10510;BME280;5303;53.266;10.410;2022-10-29T10:27:04;101801.31;;;18.07;100.00
10510;BME280;5303;53.266;10.410;2022-10-29T10:30:12;101793.75;;;18.15;100.00
10510;BME280;5303;53.266;10.410;2022-10-29T10:32:39;101792.25;;;18.13;100.00
10510;BME280;5303;53.266;10.410;2022-10-29T10:35:26;101798.94;;;18.25;100.00
10510;BME280;5303;53.266;10.410;2022-10-29T10:37:53;101796.22;;;18.32;100.00
10510;BME280;5303;53.266;10.410;2022-10-29T10:40:23;101783.97;;;18.41;100.00
10510;BME280;5303;53.266;10.410;2022-10-29T10:42:52;101787.88;;;18.53;100.00
10510;BME280;5303;53.266;10.410;2022-10-29T10:45:35;101784.72;;;18.56;100.00
10510;BME280;5303;53.266;10.410;2022-10-29T10:48:07;101772.41;;;18.52;100.00
10510;BME280;5303;53.266;10.410;2022-10-29T10:50:34;101784.06;;;18.54;100.00
10510;BME280;5303;53.266;10.410;2022-10-29T10:53:05;101784.31;;;18.59;100.00
10510;BME280;5303;53.266;10.410;2022-10-29T10:55:45;101774.53;;;18.57;100.00
10510;BME280;5303;53.266;10.410;2022-10-29T10:58:28;101772.69;;;18.71;100.00
10510;BME280;5303;53.266;10.410;2022-10-29T11:01:08;101765.16;;;18.86;100.00
10510;BME280;5303;53.266;10.410;2022-10-29T11:06:12;101772.91;;;18.69;100.00
10510;BME280;5303;53.266;10.410;2022-10-29T11:08:44;101764.72;;;18.82;100.00
10510;BME280;5303;53.266;10.410;2022-10-29T11:11:23;101765.31;;;18.78;100.00
10510;BME280;5303;53.266;10.410;2022-10-29T11:13:52;101763.28;;;18.93;100.00
10510;BME280;5303;53.266;10.410;2022-10-29T11:16:40;101760.13;;;18.96;100.00
10510;BME280;5303;53.266;10.410;2022-10-29T11:19:37;101767.38;;;19.04;100.00
10510;BME280;5303;53.266;10.410;2022-10-29T11:22:27;101756.94;;;18.99;100.00
10510;BME280;5303;53.266;10.410;2022-10-29T11:24:59;101760.81;;;19.12;100.00
10510;BME280;5303;53.266;10.410;2022-10-29T11:30:10;101752.75;;;19.10;100.00
10510;BME280;5303;53.266;10.410;2022-10-29T11:32:59;101748.53;;;19.21;100.00
10510;BME280;5303;53.266;10.410;2022-10-29T11:35:39;101747.47;;;19.22;100.00
10510;BME280;5303;53.266;10.410;2022-10-29T11:40:56;101738.59;;;19.33;100.00
10510;BME280;5303;53.266;10.410;2022-10-29T11:43:23;101725.38;;;19.28;100.00
10510;BME280;5303;53.266;10.410;2022-10-29T11:45:55;101717.94;;;19.22;100.00
10510;BME280;5303;53.266;10.410;2022-10-29T11:54:00;101713.91;;;19.25;100.00
10510;BME280;5303;53.266;10.410;2022-10-29T12:04:29;101702.03;;;19.44;100.00
10510;BME280;5303;53.266;10.410;2022-10-29T12:10:23;101697.34;;;19.45;100.00
10510;BME280;5303;53.266;10.410;2022-10-29T12:13:08;101695.00;;;19.42;100.00
10510;BME280;5303;53.266;10.410;2022-10-29T12:15:39;101703.72;;;19.45;100.00
10510;BME280;5303;53.266;10.410;2022-10-29T12:18:31;101710.31;;;19.51;100.00
10510;BME280;5303;53.266;10.410;2022-10-29T12:21:09;101711.81;;;19.53;100.00
10510;BME280;5303;53.266;10.410;2022-10-29T12:30:03;101699.97;;;19.66;100.00
10510;BME280;5303;53.266;10.410;2022-10-29T12:32:35;101689.13;;;19.65;100.00
10510;BME280;5303;53.266;10.410;2022-10-29T12:35:19;101685.03;;;19.61;100.00
10510;BME280;5303;53.266;10.410;2022-10-29T12:40:59;101682.28;;;19.61;100.00
10510;BME280;5303;53.266;10.410;2022-10-29T12:43:29;101687.59;;;19.62;100.00
10510;BME280;5303;53.266;10.410;2022-10-29T12:51:50;101675.06;;;19.60;100.00
10510;BME280;5303;53.266;10.410;2022-10-29T12:56:52;101675.72;;;19.68;100.00
10510;BME280;5303;53.266;10.410;2022-10-29T13:01:53;101671.91;;;19.69;100.00
10510;BME280;5303;53.266;10.410;2022-10-29T13:06:58;101652.13;;;19.66;100.00
10510;BME280;5303;53.266;10.410;2022-10-29T13:09:33;101655.31;;;19.76;100.00
10510;BME280;5303;53.266;10.410;2022-10-29T13:12:04;101651.47;;;19.77;100.00
10510;BME280;5303;53.266;10.410;2022-10-29T13:14:51;101645.31;;;19.75;100.00
10510;BME280;5303;53.266;10.410;2022-10-29T13:17:27;101641.91;;;19.80;100.00
10510;BME280;5303;53.266;10.410;2022-10-29T13:20:21;101640.63;;;19.89;100.00
10510;BME280;5303;53.266;10.410;2022-10-29T13:30:34;101641.88;;;19.93;100.00
10510;BME280;5303;53.266;10.410;2022-10-29T13:41:09;101648.50;;;19.92;100.00
10510;BME280;5303;53.266;10.410;2022-10-29T13:43:36;101649.34;;;19.86;100.00
10510;BME280;5303;53.266;10.410;2022-10-29T13:46:21;101642.97;;;19.92;100.00
10510;BME280;5303;53.266;10.410;2022-10-29T13:48:50;101639.53;;;19.90;100.00
10510;BME280;5303;53.266;10.410;2022-10-29T13:51:21;101636.59;;;19.91;100.00
10510;BME280;5303;53.266;10.410;2022-10-29T13:53:52;101644.22;;;19.89;100.00
10510;BME280;5303;53.266;10.410;2022-10-29T13:56:29;101635.91;;;19.96;100.00
10510;BME280;5303;53.266;10.410;2022-10-29T13:58:59;101638.25;;;20.06;100.00
10510;BME280;5303;53.266;10.410;2022-10-29T14:01:27;101637.34;;;20.18;100.00
10510;BME280;5303;53.266;10.410;2022-10-29T14:04:19;101632.91;;;20.11;100.00
10510;BME280;5303;53.266;10.410;2022-10-29T14:06:47;101642.28;;;19.96;100.00
10510;BME280;5303;53.266;10.410;2022-10-29T14:09:20;101643.59;;;20.00;100.00
10510;BME280;5303;53.266;10.410;2022-10-29T14:11:54;101645.91;;;20.04;100.00
10510;BME280;5303;53.266;10.410;2022-10-29T14:14:30;101650.84;;;19.75;100.00
10510;BME280;5303;53.266;10.410;2022-10-29T14:17:14;101655.72;;;19.86;100.00
10510;BME280;5303;53.266;10.410;2022-10-29T14:19:47;101650.00;;;19.88;100.00
10510;BME280;5303;53.266;10.410;2022-10-29T14:22:29;101640.84;;;19.74;100.00
10510;BME280;5303;53.266;10.410;2022-10-29T14:25:01;101635.09;;;19.82;100.00
10510;BME280;5303;53.266;10.410;2022-10-29T14:27:28;101638.69;;;19.89;100.00
10510;BME280;5303;53.266;10.410;2022-10-29T14:30:10;101638.50;;;19.91;100.00
10510;BME280;5303;53.266;10.410;2022-10-29T14:32:37;101632.75;;;19.79;100.00
10510;BME280;5303;53.266;10.410;2022-10-29T14:35:03;101631.09;;;19.71;100.00
10510;BME280;5303;53.266;10.410;2022-10-29T14:37:39;101622.97;;;19.76;100.00
10510;BME280;5303;53.266;10.410;2022-10-29T14:40:19;101620.88;;;19.65;100.00